createdAt,value
2023-05-21T00:00:44.710Z,19.80
2023-05-21T00:03:14.504Z,20.02
2023-05-21T00:05:41.699Z,24.40
2023-05-21T00:08:08.814Z,21.17
2023-05-21T00:10:35.880Z,18.77
2023-05-21T00:13:05.416Z,22.58
2023-05-21T00:15:32.558Z,21.05
2023-05-21T00:17:59.608Z,21.08
2023-05-21T00:20:26.977Z,22.33
2023-05-21T00:22:54.228Z,21.63
2023-05-21T00:25:21.247Z,23.48
2023-05-21T00:27:51.383Z,20.65
2023-05-21T00:30:18.487Z,20.45
2023-05-21T00:32:47.577Z,19.27
2023-05-21T00:35:15.144Z,20.90
2023-05-21T00:37:42.611Z,20.98
2023-05-21T00:40:11.516Z,21.38
2023-05-21T00:42:42.453Z,22.60
2023-05-21T00:45:10.606Z,20.63
2023-05-21T00:47:37.900Z,25.08
2023-05-21T00:50:06.384Z,22.02
2023-05-21T00:52:33.513Z,19.00
2023-05-21T00:55:00.630Z,18.83
2023-05-21T00:57:27.760Z,21.05
2023-05-21T00:59:54.968Z,23.05
2023-05-21T01:02:24.417Z,19.93
2023-05-21T01:04:56.281Z,19.17
2023-05-21T01:07:23.594Z,20.52
2023-05-21T01:09:50.788Z,19.83
2023-05-21T01:12:19.137Z,20.60
2023-05-21T01:14:46.390Z,19.25
2023-05-21T01:17:16.219Z,24.20
2023-05-21T01:19:44.723Z,22.33
2023-05-21T01:22:15.751Z,19.30
2023-05-21T01:24:47.651Z,20.08
2023-05-21T01:27:14.694Z,19.65
2023-05-21T01:29:41.965Z,21.50
2023-05-21T01:32:14.434Z,20.47
2023-05-21T01:34:51.272Z,21.33
2023-05-21T01:37:27.126Z,20.83
2023-05-21T01:40:06.306Z,23.13
2023-05-21T01:42:36.174Z,24.02
2023-05-21T01:45:06.331Z,24.42
2023-05-21T01:47:34.918Z,20.73
2023-05-21T01:50:03.910Z,18.75
2023-05-21T01:52:31.415Z,22.52
2023-05-21T01:55:00.201Z,18.52
2023-05-21T01:57:27.317Z,19.85
2023-05-21T01:59:56.316Z,23.23
2023-05-21T02:02:23.625Z,20.55
2023-05-21T02:04:51.525Z,19.40
2023-05-21T02:07:18.872Z,19.65
2023-05-21T02:09:46.051Z,22.60
2023-05-21T02:12:13.013Z,19.80
2023-05-21T02:14:40.709Z,20.80
2023-05-21T02:17:08.218Z,23.47
2023-05-21T02:19:35.854Z,25.25
2023-05-21T02:22:02.906Z,22.40
2023-05-21T02:24:29.888Z,23.23
2023-05-21T02:26:58.837Z,22.48
2023-05-21T02:29:26.099Z,22.65
2023-05-21T02:31:53.226Z,22.87
2023-05-21T02:34:20.827Z,22.20
2023-05-21T02:36:54.660Z,23.23
2023-05-21T02:39:22.287Z,22.17
2023-05-21T02:41:49.497Z,22.13
2023-05-21T02:44:16.849Z,26.00
2023-05-21T02:46:44.517Z,20.88
2023-05-21T02:49:12.563Z,23.33
2023-05-21T02:51:41.487Z,21.83
2023-05-21T02:54:08.728Z,21.55
2023-05-21T02:56:35.760Z,20.13
2023-05-21T02:59:02.921Z,22.30
2023-05-21T03:01:30.131Z,19.87
2023-05-21T03:03:57.337Z,22.27
2023-05-21T03:06:24.593Z,21.47
2023-05-21T03:08:51.671Z,24.23
2023-05-21T03:11:20.174Z,22.85
2023-05-21T03:13:47.288Z,24.58
2023-05-21T03:16:14.350Z,24.55
2023-05-21T03:18:41.585Z,25.05
2023-05-21T03:21:08.738Z,25.73
2023-05-21T03:23:35.795Z,22.17
2023-05-21T03:26:02.836Z,18.83
2023-05-21T03:28:29.993Z,22.48
2023-05-21T03:31:00.366Z,21.23
2023-05-21T03:33:56.412Z,21.58
2023-05-21T03:36:27.625Z,19.88
2023-05-21T03:38:56.256Z,23.35
2023-05-21T03:41:23.557Z,21.48
2023-05-21T03:43:55.898Z,22.50
2023-05-21T03:46:26.729Z,22.60
2023-05-21T03:48:58.239Z,24.63
2023-05-21T03:51:27.582Z,26.88
2023-05-21T03:53:54.996Z,28.77
2023-05-21T03:56:23.047Z,32.97
2023-05-21T03:58:50.645Z,33.08
2023-05-21T04:01:18.194Z,35.97
2023-05-21T04:03:46.373Z,35.47
2023-05-21T04:06:16.087Z,33.35
2023-05-21T04:08:43.443Z,32.67
2023-05-21T04:11:10.695Z,33.75
2023-05-21T04:13:38.904Z,31.63
2023-05-21T04:16:08.983Z,34.20
2023-05-21T04:18:36.464Z,36.08
2023-05-21T04:21:03.889Z,41.25
2023-05-21T04:23:30.938Z,35.22
2023-05-21T04:25:59.178Z,37.17
2023-05-21T04:28:28.797Z,36.53
2023-05-21T04:31:03.456Z,35.25
2023-05-21T04:33:30.782Z,35.60
2023-05-21T04:35:58.074Z,36.42
2023-05-21T04:38:25.984Z,38.35
2023-05-21T04:40:53.572Z,38.03
2023-05-21T04:43:27.190Z,34.93
2023-05-21T04:45:57.370Z,38.40
2023-05-21T04:48:27.264Z,39.35
2023-05-21T04:50:56.098Z,36.88
2023-05-21T04:53:26.140Z,34.55
2023-05-21T04:55:53.619Z,36.55
2023-05-21T04:58:21.183Z,33.60
2023-05-21T05:00:51.059Z,29.67
2023-05-21T05:03:18.657Z,28.27
2023-05-21T05:05:46.194Z,28.15
2023-05-21T05:08:15.870Z,29.05
2023-05-21T05:10:43.707Z,30.02
2023-05-21T05:13:10.892Z,28.63
2023-05-21T05:15:38.221Z,28.40
2023-05-21T05:18:08.545Z,24.70
2023-05-21T05:20:35.860Z,27.60
2023-05-21T05:23:02.928Z,25.73
2023-05-21T05:25:29.947Z,26.23
2023-05-21T05:27:57.646Z,29.65
2023-05-21T05:30:24.647Z,25.60
2023-05-21T05:33:00.186Z,27.58
2023-05-21T05:35:30.509Z,24.97
2023-05-21T05:37:57.576Z,26.20
2023-05-21T05:40:24.834Z,24.55
2023-05-21T05:42:52.792Z,26.37
2023-05-21T05:45:20.552Z,24.30
2023-05-21T05:50:16.372Z,26.85
2023-05-21T05:52:43.359Z,28.83
2023-05-21T05:55:12.781Z,28.83
2023-05-21T05:57:39.794Z,27.23
2023-05-21T06:00:12.615Z,28.52
2023-05-21T06:02:40.249Z,28.05
2023-05-21T06:05:08.455Z,27.70
2023-05-21T06:07:38.458Z,26.20
2023-05-21T06:10:08.844Z,26.08
2023-05-21T06:12:36.224Z,28.52
2023-05-21T06:15:04.113Z,28.73
2023-05-21T06:17:31.984Z,28.42
2023-05-21T06:19:59.117Z,25.45
2023-05-21T06:22:28.332Z,28.80
2023-05-21T06:24:56.231Z,26.02
2023-05-21T06:27:23.146Z,26.15
2023-05-21T06:29:50.726Z,25.67
2023-05-21T06:32:18.714Z,24.67
2023-05-21T06:34:46.132Z,25.88
2023-05-21T06:37:13.564Z,24.55
2023-05-21T06:39:40.719Z,23.37
2023-05-21T06:42:08.017Z,25.85
2023-05-21T06:44:52.545Z,23.63
2023-05-21T06:47:28.229Z,26.95
2023-05-21T06:52:23.289Z,23.92
2023-05-21T06:54:50.738Z,23.70
2023-05-21T06:57:18.849Z,26.15
2023-05-21T06:59:45.818Z,22.27
2023-05-21T07:02:13.009Z,20.13
2023-05-21T07:04:40.137Z,21.40
2023-05-21T07:07:07.493Z,21.60
2023-05-21T07:09:34.478Z,31.83
2023-05-21T07:12:02.523Z,23.38
2023-05-21T07:14:30.067Z,19.42
2023-05-21T07:16:57.115Z,21.23
2023-05-21T07:19:24.542Z,20.15
2023-05-21T07:21:51.540Z,19.80
2023-05-21T07:24:18.812Z,25.50
2023-05-21T07:26:46.207Z,20.55
2023-05-21T07:29:13.893Z,21.13
2023-05-21T07:31:41.264Z,18.95
2023-05-21T07:34:08.450Z,20.27
2023-05-21T07:36:35.620Z,19.45
2023-05-21T07:39:04.973Z,18.33
2023-05-21T07:41:32.906Z,18.08
2023-05-21T07:44:02.918Z,22.33
2023-05-21T07:46:32.425Z,19.75
2023-05-21T07:48:59.699Z,19.38
2023-05-21T07:51:27.572Z,18.88
2023-05-21T07:53:55.369Z,18.30
2023-05-21T07:56:36.594Z,18.60
2023-05-21T07:59:05.718Z,18.58
2023-05-21T08:01:33.209Z,21.95
2023-05-21T08:04:07.242Z,20.42
2023-05-21T08:06:37.725Z,23.50
2023-05-21T08:09:06.408Z,17.08
2023-05-21T08:11:34.106Z,16.10
2023-05-21T08:14:02.012Z,18.77
2023-05-21T08:16:30.730Z,18.05
2023-05-21T08:18:57.866Z,18.25
2023-05-21T08:21:25.079Z,16.93
2023-05-21T08:23:55.217Z,17.27
2023-05-21T08:26:22.244Z,17.25
2023-05-21T08:28:49.363Z,16.00
2023-05-21T08:31:18.793Z,18.83
2023-05-21T08:33:53.523Z,16.02
2023-05-21T08:36:29.068Z,16.05
2023-05-21T08:39:02.026Z,15.65
2023-05-21T08:41:36.309Z,16.10
2023-05-21T08:44:04.355Z,14.52
2023-05-21T08:46:36.738Z,14.15
2023-05-21T08:49:03.907Z,16.20
2023-05-21T08:51:32.615Z,16.40
2023-05-21T08:54:01.637Z,16.73
2023-05-21T08:56:32.514Z,13.93
2023-05-21T08:59:00.190Z,14.63
2023-05-21T09:01:34.127Z,13.82
2023-05-21T09:04:20.904Z,13.57
2023-05-21T09:06:52.244Z,13.05
2023-05-21T09:09:34.330Z,11.57
2023-05-21T09:12:02.132Z,12.75
2023-05-21T09:14:33.157Z,14.18
2023-05-21T09:17:14.821Z,13.98
2023-05-21T09:20:15.835Z,14.57
2023-05-21T09:22:50.711Z,12.63
2023-05-21T09:25:22.976Z,16.00
2023-05-21T09:27:51.038Z,11.20
2023-05-21T09:30:21.871Z,12.68
2023-05-21T09:32:58.391Z,11.10
2023-05-21T09:35:26.943Z,9.60
2023-05-21T09:37:54.187Z,10.60
2023-05-21T09:40:23.598Z,14.53
2023-05-21T09:42:55.231Z,11.63
2023-05-21T09:45:26.472Z,11.90
2023-05-21T09:47:56.809Z,14.00
2023-05-21T09:52:53.093Z,10.23
2023-05-21T09:55:23.424Z,12.05
2023-05-21T09:57:53.206Z,11.65
2023-05-21T10:00:25.153Z,9.60
2023-05-21T10:02:57.030Z,10.50
2023-05-21T10:05:28.842Z,11.93
2023-05-21T10:08:03.900Z,9.63
2023-05-21T10:10:32.485Z,14.85
2023-05-21T10:13:04.145Z,11.82
2023-05-21T10:15:35.509Z,12.65
2023-05-21T10:18:03.911Z,11.57
2023-05-21T10:20:32.073Z,9.25
2023-05-21T10:23:00.203Z,7.70
2023-05-21T10:25:29.136Z,8.50
2023-05-21T10:27:57.322Z,9.00
2023-05-21T10:30:25.197Z,10.18
2023-05-21T10:32:55.691Z,9.10
2023-05-21T10:35:23.556Z,9.95
2023-05-21T10:40:20.381Z,7.43
2023-05-21T10:43:28.785Z,9.18
2023-05-21T10:46:27.056Z,8.15
2023-05-21T10:49:18.293Z,7.85
2023-05-21T10:52:09.144Z,9.02
2023-05-21T10:55:06.414Z,10.50
2023-05-21T10:58:05.463Z,9.18
2023-05-21T11:00:32.729Z,8.02
2023-05-21T11:03:03.226Z,7.95
2023-05-21T11:05:51.781Z,6.43
2023-05-21T11:08:25.798Z,24.25
2023-05-21T11:10:58.391Z,9.18
2023-05-21T11:13:27.248Z,7.88
2023-05-21T11:16:01.508Z,6.18
2023-05-21T11:18:38.143Z,6.15
2023-05-21T11:21:16.041Z,7.78
2023-05-21T11:23:52.703Z,7.93
2023-05-21T11:26:23.845Z,6.63
2023-05-21T11:29:06.605Z,6.50
2023-05-21T11:31:38.758Z,7.18
2023-05-21T11:34:28.321Z,8.52
2023-05-21T11:37:17.702Z,7.43
2023-05-21T11:39:45.419Z,6.63
2023-05-21T11:42:12.872Z,6.03
2023-05-21T11:44:46.838Z,7.43
2023-05-21T11:47:15.406Z,7.70
2023-05-21T11:49:43.088Z,7.53
2023-05-21T11:52:12.098Z,5.97
2023-05-21T11:54:48.527Z,9.48
2023-05-21T11:57:17.859Z,11.25
2023-05-21T11:59:46.404Z,7.00
2023-05-21T12:04:46.516Z,5.18
2023-05-21T12:07:15.498Z,4.88
2023-05-21T12:09:52.395Z,6.00
2023-05-21T12:12:21.619Z,7.13
2023-05-21T12:14:50.982Z,9.07
2023-05-21T12:17:23.059Z,5.32
2023-05-21T12:19:52.967Z,7.53
2023-05-21T12:22:22.061Z,6.93
2023-05-21T12:24:49.285Z,8.77
2023-05-21T12:27:18.369Z,8.50
2023-05-21T12:29:46.666Z,9.50
2023-05-21T12:32:15.166Z,6.57
2023-05-21T12:34:46.798Z,7.30
2023-05-21T12:37:23.341Z,7.03
2023-05-21T12:39:52.211Z,7.82
2023-05-21T12:42:27.245Z,7.28
2023-05-21T12:44:54.929Z,5.57
2023-05-21T12:50:01.953Z,6.45
2023-05-21T12:52:31.034Z,6.47
2023-05-21T12:54:58.512Z,5.00
2023-05-21T12:57:28.335Z,16.10
2023-05-21T12:59:58.290Z,7.45
2023-05-21T13:02:27.510Z,6.53
2023-05-21T13:05:00.177Z,4.78
2023-05-21T13:07:31.941Z,8.85
2023-05-21T13:09:59.982Z,6.38
2023-05-21T13:12:29.442Z,5.18
2023-05-21T13:14:58.898Z,7.88
2023-05-21T13:17:27.540Z,5.10
2023-05-21T13:20:10.075Z,9.10
2023-05-21T13:22:48.015Z,5.97
2023-05-21T13:25:21.335Z,6.15
2023-05-21T13:27:49.836Z,5.53
2023-05-21T13:30:17.080Z,6.57
2023-05-21T13:32:44.288Z,8.45
2023-05-21T13:35:12.238Z,6.30
2023-05-21T13:37:40.835Z,5.07
2023-05-21T13:40:15.082Z,5.95
2023-05-21T13:42:44.152Z,5.03
2023-05-21T13:45:13.782Z,5.10
2023-05-21T13:47:42.119Z,6.35
2023-05-21T13:50:10.131Z,4.30
2023-05-21T13:52:37.860Z,6.13
2023-05-21T13:57:32.614Z,6.40
2023-05-21T14:00:00.361Z,6.07
2023-05-21T14:02:27.609Z,8.77
2023-05-21T14:04:54.829Z,4.70
2023-05-21T14:07:22.357Z,6.75
2023-05-21T14:09:49.966Z,9.25
2023-05-21T14:12:17.758Z,8.18
2023-05-21T14:14:45.192Z,6.72
2023-05-21T14:17:12.560Z,8.18
2023-05-21T14:19:39.759Z,8.30
2023-05-21T14:22:08.361Z,5.85
2023-05-21T14:24:35.862Z,9.15
2023-05-21T14:27:03.937Z,11.80
2023-05-21T14:29:31.382Z,5.53
2023-05-21T14:31:58.728Z,5.18
2023-05-21T14:34:26.108Z,9.77
2023-05-21T14:36:53.659Z,9.65
2023-05-21T14:39:20.827Z,5.30
2023-05-21T14:42:10.815Z,5.35
2023-05-21T14:44:38.188Z,6.53
2023-05-21T14:47:05.569Z,6.15
2023-05-21T14:49:33.164Z,4.78
2023-05-21T14:52:00.601Z,4.72
2023-05-21T14:54:27.890Z,8.80
2023-05-21T14:56:56.043Z,7.30
2023-05-21T14:59:23.442Z,4.97
2023-05-21T15:01:50.892Z,4.88
2023-05-21T15:04:18.206Z,9.73
2023-05-21T15:06:45.516Z,6.80
2023-05-21T15:09:13.157Z,6.53
2023-05-21T15:14:08.878Z,8.13
2023-05-21T15:16:37.237Z,8.35
2023-05-21T15:19:04.954Z,6.35
2023-05-21T15:21:32.178Z,6.30
2023-05-21T15:23:59.308Z,7.30
2023-05-21T15:26:27.034Z,8.88
2023-05-21T15:31:21.216Z,7.38
2023-05-21T15:33:49.039Z,4.35
2023-05-21T15:36:16.212Z,4.35
2023-05-21T15:38:43.241Z,5.75
2023-05-21T15:41:10.355Z,6.68
2023-05-21T15:43:37.375Z,10.25
2023-05-21T15:46:04.917Z,6.25
2023-05-21T15:48:32.973Z,5.30
2023-05-21T15:50:59.982Z,5.38
2023-05-21T15:53:26.970Z,5.55
2023-05-21T15:55:53.927Z,8.88
2023-05-21T15:58:21.088Z,7.30
2023-05-21T16:00:48.475Z,10.00
2023-05-21T16:03:16.029Z,11.20
2023-05-21T16:08:12.187Z,24.98
2023-05-21T16:10:40.070Z,12.50
2023-05-21T16:13:07.275Z,10.75
2023-05-21T16:15:34.613Z,10.48
2023-05-21T16:18:01.893Z,11.10
2023-05-21T16:20:31.045Z,7.15
2023-05-21T16:22:58.690Z,9.45
2023-05-21T16:25:25.687Z,46.35
2023-05-21T16:27:52.866Z,50.65
2023-05-21T16:30:19.997Z,14.18
2023-05-21T16:32:47.226Z,12.23
2023-05-21T16:35:14.558Z,5.10
2023-05-21T16:37:41.725Z,4.10
2023-05-21T16:40:09.335Z,7.15
2023-05-21T16:45:03.474Z,5.45
2023-05-21T16:47:30.812Z,5.63
2023-05-21T16:49:58.698Z,8.32
2023-05-21T16:52:26.620Z,6.18
2023-05-21T16:54:53.898Z,6.95
2023-05-21T16:57:21.355Z,5.35
2023-05-21T17:02:15.943Z,15.13
2023-05-21T17:04:43.319Z,5.80
2023-05-21T17:07:10.327Z,5.45
2023-05-21T17:09:37.365Z,6.40
2023-05-21T17:12:04.635Z,5.07
2023-05-21T17:14:34.833Z,8.32
2023-05-21T17:17:03.504Z,4.97
2023-05-21T17:19:30.766Z,6.40
2023-05-21T17:21:58.176Z,5.43
2023-05-21T17:24:25.364Z,4.88
2023-05-21T17:26:53.794Z,6.93
2023-05-21T17:29:21.016Z,6.00
2023-05-21T17:31:48.344Z,6.85
2023-05-21T17:34:16.611Z,11.55
2023-05-21T17:36:44.162Z,8.52
2023-05-21T17:39:11.292Z,9.80
2023-05-21T17:41:40.103Z,4.93
2023-05-21T17:44:07.306Z,8.17
2023-05-21T17:46:34.711Z,7.47
2023-05-21T17:49:02.446Z,7.95
2023-05-21T17:53:56.929Z,8.80
2023-05-21T17:56:24.121Z,10.77
2023-05-21T17:58:54.414Z,12.23
2023-05-21T18:01:22.885Z,6.13
2023-05-21T18:03:50.166Z,4.82
2023-05-21T18:06:17.581Z,7.93
2023-05-21T18:08:44.670Z,8.88
2023-05-21T18:11:11.965Z,5.25
2023-05-21T18:13:38.980Z,5.82
2023-05-21T18:16:06.158Z,9.17
2023-05-21T18:18:35.317Z,6.03
2023-05-21T18:21:03.054Z,5.93
2023-05-21T18:23:31.277Z,5.83
2023-05-21T18:25:58.583Z,7.63
2023-05-21T18:28:25.618Z,6.40
2023-05-21T18:30:53.335Z,6.32
2023-05-21T18:33:21.300Z,6.53
2023-05-21T18:35:48.433Z,13.35
2023-05-21T18:38:15.657Z,7.33
2023-05-21T18:40:42.831Z,9.40
2023-05-21T18:43:10.991Z,6.97
2023-05-21T18:45:38.595Z,7.80
2023-05-21T18:48:06.091Z,10.25
2023-05-21T18:50:34.526Z,4.28
2023-05-21T18:53:01.875Z,8.68
2023-05-21T18:57:56.980Z,7.53
2023-05-21T19:00:24.453Z,7.87
2023-05-21T19:02:52.754Z,7.80
2023-05-21T19:05:20.097Z,7.68
2023-05-21T19:07:49.834Z,7.55
2023-05-21T19:10:19.827Z,8.73
2023-05-21T19:12:47.122Z,7.55
2023-05-21T19:15:14.621Z,13.30
2023-05-21T19:17:43.289Z,4.80
2023-05-21T19:20:10.754Z,5.57
2023-05-21T19:22:39.031Z,9.18
2023-05-21T19:25:07.101Z,6.10
2023-05-21T19:30:01.298Z,8.13
2023-05-21T19:32:28.873Z,5.40
2023-05-21T19:34:57.495Z,6.38
2023-05-21T19:37:25.232Z,5.22
2023-05-21T19:39:52.412Z,8.90
2023-05-21T19:42:21.374Z,9.80
2023-05-21T19:44:48.828Z,9.23
2023-05-21T19:47:15.965Z,4.75
2023-05-21T19:49:44.255Z,5.90
2023-05-21T19:52:12.406Z,8.15
2023-05-21T19:54:39.593Z,10.55
2023-05-21T19:57:06.962Z,7.05
2023-05-21T19:59:34.146Z,8.82
2023-05-21T20:02:01.291Z,10.00
2023-05-21T20:04:28.480Z,7.00
2023-05-21T20:06:55.673Z,5.70
2023-05-21T20:09:22.978Z,4.93
2023-05-21T20:11:50.098Z,6.40
2023-05-21T20:14:17.245Z,4.90
2023-05-21T20:16:47.094Z,7.47
2023-05-21T20:19:15.211Z,4.53
2023-05-21T20:24:11.288Z,6.22
2023-05-21T20:26:40.098Z,5.47
2023-05-21T20:29:08.176Z,7.15
2023-05-21T20:34:08.981Z,5.65
2023-05-21T20:36:37.065Z,6.35
2023-05-21T20:39:04.989Z,8.50
2023-05-21T20:44:06.657Z,16.15
2023-05-21T20:46:38.444Z,9.07
2023-05-21T20:49:06.235Z,6.30
2023-05-21T20:51:34.108Z,4.82
2023-05-21T20:54:01.146Z,5.90
2023-05-21T20:58:59.449Z,4.82
2023-05-21T21:01:31.011Z,5.70
2023-05-21T21:03:58.267Z,4.57
2023-05-21T21:06:26.398Z,3.67
2023-05-21T21:11:23.477Z,4.13
2023-05-21T21:13:51.050Z,6.10
2023-05-21T21:16:18.346Z,6.85
2023-05-21T21:18:47.094Z,5.32
2023-05-21T21:21:14.618Z,5.95
2023-05-21T21:23:44.774Z,4.28
2023-05-21T21:26:11.790Z,6.57
2023-05-21T21:28:38.796Z,6.80
2023-05-21T21:31:05.833Z,4.13
2023-05-21T21:33:32.904Z,6.43
2023-05-21T21:36:00.803Z,8.00
2023-05-21T21:38:27.771Z,5.10
2023-05-21T21:40:55.066Z,6.50
2023-05-21T21:43:22.135Z,5.35
2023-05-21T21:45:49.495Z,10.10
2023-05-21T21:48:16.859Z,19.65
2023-05-21T21:50:43.837Z,10.10
2023-05-21T21:53:12.724Z,4.90
2023-05-21T21:55:40.077Z,8.18
2023-05-21T21:58:07.291Z,11.55
2023-05-21T22:00:34.778Z,21.83
2023-05-21T22:03:02.132Z,10.43
2023-05-21T22:05:30.873Z,8.63
2023-05-21T22:07:59.096Z,7.78
2023-05-21T22:10:27.393Z,4.07
2023-05-21T22:12:54.564Z,3.78
2023-05-21T22:15:25.033Z,7.43
2023-05-21T22:17:52.488Z,6.35
2023-05-21T22:20:20.189Z,4.40
2023-05-21T22:22:47.515Z,3.53
2023-05-21T22:25:17.834Z,4.70
2023-05-21T22:27:45.072Z,5.68
2023-05-21T22:30:12.630Z,5.63
2023-05-21T22:32:40.139Z,5.50
2023-05-21T22:35:08.072Z,4.57
2023-05-21T22:40:06.907Z,4.63
2023-05-21T22:42:38.664Z,6.00
2023-05-21T22:45:06.761Z,7.25
2023-05-21T22:47:37.046Z,8.80
2023-05-21T22:50:04.499Z,6.57
2023-05-21T22:52:31.896Z,4.20
2023-05-21T22:55:00.719Z,4.15
2023-05-21T22:57:28.002Z,3.88
2023-05-21T22:59:55.148Z,6.67
2023-05-21T23:02:23.612Z,6.72
2023-05-21T23:04:50.990Z,5.35
2023-05-21T23:07:18.445Z,6.38
2023-05-21T23:09:45.783Z,4.40
2023-05-21T23:12:12.860Z,5.40
2023-05-21T23:14:40.100Z,5.55
2023-05-21T23:17:07.626Z,5.53
2023-05-21T23:19:34.760Z,8.35
2023-05-21T23:22:02.138Z,4.40
2023-05-21T23:24:29.643Z,4.40
2023-05-21T23:27:01.877Z,4.70
2023-05-21T23:29:30.375Z,4.65
2023-05-21T23:31:57.642Z,8.57
2023-05-21T23:34:24.906Z,5.93
2023-05-21T23:36:52.623Z,5.60
2023-05-21T23:39:19.676Z,4.43
2023-05-21T23:41:46.823Z,5.82
2023-05-21T23:44:15.455Z,5.67
2023-05-21T23:46:45.842Z,8.05
2023-05-21T23:49:13.236Z,6.65
2023-05-21T23:51:40.624Z,4.43
2023-05-21T23:54:08.108Z,7.07
2023-05-21T23:56:35.482Z,10.43
2023-05-21T23:59:02.555Z,4.80
